Time;durP1;ratioP1;P1;durP2;ratioP2;P2;SDS_P1;SDS_P2;PMS_P1;PMS_P2;Temp;Humidity;BMP_temperature;BMP_pressure;BME280_temperature;BME280_humidity;BME280_pressure;Samples;Min_cycle;Max_cycle;Signal;HPM_P1;HPM_P2
2022/06/10 00:00:59;;;;;;;13.98;12.57;;;;;;;;;;5116862;28;20210;-37
2022/06/10 00:03:27;;;;;;;16.05;13.02;;;;;;;;;;5116181;28;20202;-41
2022/06/10 00:05:56;;;;;;;17.80;13.50;;;;;;;;;;5116384;28;20230;-41
2022/06/10 00:08:27;;;;;;;20.20;14.40;;;;;;;;;;5116183;28;20201;-41
2022/06/10 00:10:55;;;;;;;18.92;14.18;;;;;;;;;;5116371;28;20235;-37
2022/06/10 00:13:24;;;;;;;21.17;13.07;;;;;;;;;;5116664;28;20201;-38
2022/06/10 00:15:53;;;;;;;20.48;12.77;;;;;;;;;;5116171;28;20291;-38
2022/06/10 00:18:21;;;;;;;19.83;14.35;;;;;;;;;;5081117;28;20201;-38
2022/06/10 00:20:48;;;;;;;21.60;15.43;;;;;;;;;;5116103;28;20198;-38
2022/06/10 00:23:15;;;;;;;16.48;14.02;;;;;;;;;;5115895;28;20194;-38
2022/06/10 00:25:42;;;;;;;16.80;14.30;;;;;;;;;;5115484;28;20591;-37
2022/06/10 00:28:10;;;;;;;19.00;14.35;;;;;;;;;;5115740;28;20216;-37
2022/06/10 00:30:37;;;;;;;21.70;14.88;;;;;;;;;;5115822;28;20198;-38
2022/06/10 00:33:05;;;;;;;21.13;15.75;;;;;;;;;;5115749;28;20222;-39
2022/06/10 00:35:33;;;;;;;22.40;15.00;;;;;;;;;;5115688;28;20225;-39
2022/06/10 00:38:01;;;;;;;19.25;14.88;;;;;;;;;;5116410;28;20210;-37
2022/06/10 00:40:33;;;;;;;17.88;14.45;;;;;;;;;;5115610;28;20231;-37
2022/06/10 00:43:01;;;;;;;21.58;15.50;;;;;;;;;;5097629;28;20223;-38
2022/06/10 00:46:05;;;;;;;21.02;14.90;;;;;;;;;;5116046;28;20212;-37
2022/06/10 00:48:38;;;;;;;22.13;15.43;;;;;;;;;;5114659;28;20265;-38
2022/06/10 00:51:28;;;;;;;20.08;15.30;;;;;;;;;;5116102;28;20261;-38
2022/06/10 00:54:31;;;;;;;18.38;15.98;;;;;;;;;;5097600;28;20645;-38
2022/06/10 00:57:03;;;;;;;21.02;15.70;;;;;;;;;;5097944;28;20622;-37
2022/06/10 00:59:47;;;;;;;18.77;15.20;;;;;;;;;;5115653;28;20182;-38
2022/06/10 01:02:20;;;;;;;20.13;16.10;;;;;;;;;;5098008;28;20187;-37
2022/06/10 01:04:48;;;;;;;20.25;16.13;;;;;;;;;;5114787;28;20251;-38
2022/06/10 01:07:26;;;;;;;20.35;15.63;;;;;;;;;;5115672;28;20183;-37
2022/06/10 01:09:53;;;;;;;18.63;15.48;;;;;;;;;;5115604;28;20197;-37
2022/06/10 01:12:32;;;;;;;21.48;16.60;;;;;;;;;;5115421;28;20206;-37
2022/06/10 01:15:03;;;;;;;20.50;15.95;;;;;;;;;;5115355;28;20213;-37
2022/06/10 01:17:41;;;;;;;20.20;15.77;;;;;;;;;;5115349;28;20244;-37
2022/06/10 01:20:20;;;;;;;16.77;15.07;;;;;;;;;;5115090;28;20530;-37
2022/06/10 01:23:25;;;;;;;17.08;14.85;;;;;;;;;;5097905;28;20281;-37
2022/06/10 01:26:11;;;;;;;22.55;15.27;;;;;;;;;;5086616;28;20217;-37
2022/06/10 01:28:50;;;;;;;17.67;14.27;;;;;;;;;;5119581;28;20186;-38
2022/06/10 01:31:32;;;;;;;20.98;14.63;;;;;;;;;;5119102;28;20182;-38
2022/06/10 01:34:11;;;;;;;25.10;14.95;;;;;;;;;;5119346;28;20186;-40
2022/06/10 01:36:51;;;;;;;18.83;15.30;;;;;;;;;;5101382;28;20202;-37
2022/06/10 01:39:33;;;;;;;19.65;15.13;;;;;;;;;;5101260;28;20189;-38
2022/06/10 01:42:08;;;;;;;19.98;14.18;;;;;;;;;;5118818;28;20529;-37
2022/06/10 01:45:01;;;;;;;18.48;13.70;;;;;;;;;;5118792;28;20182;-37
2022/06/10 01:47:46;;;;;;;18.65;14.60;;;;;;;;;;5087904;28;20619;-37
2022/06/10 01:50:32;;;;;;;18.15;14.68;;;;;;;;;;5118636;28;20194;-39
2022/06/10 01:53:01;;;;;;;16.85;15.07;;;;;;;;;;5100738;28;20194;-39
2022/06/10 01:55:47;;;;;;;22.27;13.77;;;;;;;;;;5100788;28;20287;-38
2022/06/10 01:58:26;;;;;;;18.20;14.20;;;;;;;;;;5100868;28;20186;-38
2022/06/10 02:00:59;;;;;;;23.02;15.55;;;;;;;;;;5100762;28;20247;-37
2022/06/10 02:03:55;;;;;;;22.05;15.43;;;;;;;;;;5100396;28;20503;-37
2022/06/10 02:06:33;;;;;;;24.73;20.33;;;;;;;;;;5100377;28;20282;-38
2022/06/10 02:09:06;;;;;;;21.42;18.63;;;;;;;;;;5100245;28;20545;-37
2022/06/10 02:11:35;;;;;;;21.75;16.05;;;;;;;;;;5100267;28;20568;-37
2022/06/10 02:14:16;;;;;;;20.88;15.20;;;;;;;;;;5100676;28;20250;-37
2022/06/10 02:16:45;;;;;;;21.35;15.80;;;;;;;;;;5100336;28;20725;-38
2022/06/10 02:19:25;;;;;;;20.23;15.90;;;;;;;;;;5100564;28;20182;-39
2022/06/10 02:22:00;;;;;;;19.52;16.58;;;;;;;;;;5100348;28;20186;-37
2022/06/10 02:24:33;;;;;;;18.40;15.45;;;;;;;;;;5100415;28;20186;-38
2022/06/10 02:27:05;;;;;;;22.33;15.77;;;;;;;;;;5100292;28;20699;-37
2022/06/10 02:29:41;;;;;;;19.83;16.50;;;;;;;;;;5100285;28;20525;-37
2022/06/10 02:32:08;;;;;;;34.58;15.70;;;;;;;;;;5100189;28;20192;-37
2022/06/10 02:34:36;;;;;;;22.90;16.33;;;;;;;;;;5100169;28;20205;-38
2022/06/10 02:37:10;;;;;;;27.77;15.25;;;;;;;;;;5117657;28;20225;-37
2022/06/10 02:39:45;;;;;;;21.92;15.50;;;;;;;;;;5100435;28;20178;-37
2022/06/10 02:42:37;;;;;;;19.30;15.35;;;;;;;;;;5099938;28;20273;-37
2022/06/10 02:45:07;;;;;;;22.85;18.98;;;;;;;;;;5099878;28;20648;-37
2022/06/10 02:47:56;;;;;;;26.80;15.50;;;;;;;;;;5117867;28;20190;-37
2022/06/10 02:50:24;;;;;;;27.88;16.25;;;;;;;;;;5100604;28;20194;-37
2022/06/10 02:52:52;;;;;;;33.17;20.00;;;;;;;;;;5117351;28;20271;-37
2022/06/10 02:55:23;;;;;;;26.38;19.10;;;;;;;;;;5099857;28;20217;-38
2022/06/10 03:03:36;;;;;;;24.25;20.80;;;;;;;;;;5102314;28;20213;-38
2022/06/10 03:06:20;;;;;;;28.63;20.92;;;;;;;;;;5117523;28;20229;-37
2022/06/10 03:08:57;;;;;;;26.42;18.92;;;;;;;;;;5117896;28;20218;-37
2022/06/10 03:11:51;;;;;;;22.17;16.85;;;;;;;;;;5099311;28;20186;-37
2022/06/10 03:14:41;;;;;;;24.63;16.77;;;;;;;;;;5117255;28;20259;-37
2022/06/10 03:17:23;;;;;;;23.77;17.55;;;;;;;;;;5134487;27;20209;-38
2022/06/10 03:20:13;;;;;;;26.42;17.50;;;;;;;;;;5137919;27;20529;-37
2022/06/10 03:23:06;;;;;;;31.48;22.52;;;;;;;;;;5119559;27;20193;-38
2022/06/10 03:25:39;;;;;;;28.85;22.75;;;;;;;;;;5099490;27;20266;-38
2022/06/10 03:28:40;;;;;;;51.63;21.17;;;;;;;;;;5137464;27;20270;-39
2022/06/10 03:31:53;;;;;;;26.17;20.15;;;;;;;;;;5137160;27;20185;-38
2022/06/10 03:34:27;;;;;;;27.05;21.27;;;;;;;;;;5074360;28;20602;-37
2022/06/10 03:36:57;;;;;;;30.75;20.38;;;;;;;;;;5057506;28;20238;-37
2022/06/10 03:39:25;;;;;;;36.13;21.42;;;;;;;;;;5058077;28;20198;-38
2022/06/10 03:41:58;;;;;;;30.40;20.60;;;;;;;;;;5057656;28;20203;-37
2022/06/10 03:44:26;;;;;;;28.83;21.50;;;;;;;;;;5074223;28;20207;-38
2022/06/10 03:46:55;;;;;;;23.75;20.20;;;;;;;;;;5057779;28;20296;-37
2022/06/10 03:49:27;;;;;;;23.67;21.15;;;;;;;;;;5057211;28;20257;-38
2022/06/10 03:51:55;;;;;;;29.60;22.00;;;;;;;;;;5074906;28;20187;-37
2022/06/10 03:54:22;;;;;;;23.58;20.73;;;;;;;;;;5073948;28;20203;-38
2022/06/10 03:56:51;;;;;;;26.80;20.73;;;;;;;;;;5073831;28;20322;-38
2022/06/10 03:59:19;;;;;;;26.02;21.02;;;;;;;;;;5074007;28;20531;-44
2022/06/10 04:01:46;;;;;;;24.23;20.95;;;;;;;;;;5068756;28;20224;-39
2022/06/10 04:04:14;;;;;;;28.00;20.45;;;;;;;;;;5071702;28;20683;-38
2022/06/10 04:06:41;;;;;;;29.65;21.60;;;;;;;;;;5071450;28;20247;-38
2022/06/10 04:09:25;;;;;;;23.35;20.83;;;;;;;;;;5081243;28;20654;-38
2022/06/10 04:11:52;;;;;;;29.58;21.30;;;;;;;;;;5108897;28;20222;-38
2022/06/10 04:14:19;;;;;;;23.70;21.13;;;;;;;;;;5106329;28;20251;-41
2022/06/10 04:16:46;;;;;;;24.15;21.10;;;;;;;;;;5108206;28;20244;-39
2022/06/10 04:19:14;;;;;;;26.20;23.50;;;;;;;;;;5108931;28;20229;-37
2022/06/10 04:21:40;;;;;;;26.25;23.30;;;;;;;;;;5104855;28;20222;-37
2022/06/10 04:24:08;;;;;;;26.25;23.45;;;;;;;;;;5098943;28;20234;-39
2022/06/10 04:26:35;;;;;;;30.10;24.05;;;;;;;;;;5094556;28;20233;-37
2022/06/10 04:29:02;;;;;;;27.45;24.55;;;;;;;;;;5094655;28;20288;-38
2022/06/10 04:31:29;;;;;;;26.27;23.58;;;;;;;;;;5094047;28;20219;-37
2022/06/10 04:33:56;;;;;;;26.63;23.17;;;;;;;;;;5094587;28;20222;-38
2022/06/10 04:36:23;;;;;;;24.40;22.00;;;;;;;;;;5094624;28;20254;-39
2022/06/10 04:38:50;;;;;;;23.30;20.92;;;;;;;;;;5094412;28;20218;-37
2022/06/10 04:41:17;;;;;;;25.92;22.85;;;;;;;;;;5093459;28;20222;-38
2022/06/10 04:43:44;;;;;;;32.85;22.33;;;;;;;;;;5092654;28;20223;-40
2022/06/10 04:46:21;;;;;;;25.15;22.52;;;;;;;;;;5093669;28;20238;-38
2022/06/10 04:48:49;;;;;;;27.08;22.08;;;;;;;;;;5094248;28;20235;-38
2022/06/10 04:51:16;;;;;;;23.45;21.05;;;;;;;;;;5094359;28;20230;-39
2022/06/10 04:53:43;;;;;;;22.67;20.20;;;;;;;;;;5092561;28;20219;-38
2022/06/10 04:56:10;;;;;;;24.05;20.95;;;;;;;;;;5094075;28;20709;-37
2022/06/10 04:58:37;;;;;;;24.83;20.63;;;;;;;;;;5093946;28;20219;-37
2022/06/10 05:01:03;;;;;;;25.40;19.40;;;;;;;;;;5094273;28;20661;-37
2022/06/10 05:03:31;;;;;;;21.08;18.55;;;;;;;;;;5098006;28;20256;-37
2022/06/10 05:05:59;;;;;;;23.23;19.45;;;;;;;;;;5107451;28;20230;-37
2022/06/10 05:08:26;;;;;;;24.33;19.30;;;;;;;;;;5118635;28;20298;-38
2022/06/10 05:10:53;;;;;;;21.83;19.63;;;;;;;;;;5124964;27;20665;-37
2022/06/10 05:13:22;;;;;;;23.70;19.20;;;;;;;;;;5138966;27;20235;-38
2022/06/10 05:15:50;;;;;;;24.02;19.90;;;;;;;;;;5138935;27;20225;-37
2022/06/10 05:18:20;;;;;;;25.35;19.48;;;;;;;;;;5139185;27;20266;-38
2022/06/10 05:20:47;;;;;;;22.02;18.90;;;;;;;;;;5139577;27;20561;-37
2022/06/10 05:23:17;;;;;;;21.95;18.80;;;;;;;;;;5139982;27;20201;-39
2022/06/10 05:25:45;;;;;;;21.45;18.58;;;;;;;;;;5139901;27;20208;-37
2022/06/10 05:28:13;;;;;;;22.33;18.35;;;;;;;;;;5139560;27;20262;-37
2022/06/10 05:30:40;;;;;;;22.00;19.63;;;;;;;;;;5139818;27;20201;-37
2022/06/10 05:33:09;;;;;;;21.02;18.83;;;;;;;;;;5139870;27;20197;-38
2022/06/10 05:35:36;;;;;;;19.60;17.50;;;;;;;;;;5138798;27;20193;-38
2022/06/10 05:38:04;;;;;;;21.98;18.67;;;;;;;;;;5140390;27;20244;-37
2022/06/10 05:40:32;;;;;;;22.77;19.80;;;;;;;;;;5139291;27;20205;-37
2022/06/10 05:43:00;;;;;;;20.70;18.45;;;;;;;;;;5139459;27;20215;-37
2022/06/10 05:45:27;;;;;;;20.42;18.42;;;;;;;;;;5139757;27;20224;-37
2022/06/10 05:47:56;;;;;;;21.58;19.27;;;;;;;;;;5139456;27;20270;-37
2022/06/10 05:50:25;;;;;;;26.70;19.60;;;;;;;;;;5139364;27;20217;-37
2022/06/10 05:52:52;;;;;;;22.33;19.60;;;;;;;;;;5139368;27;20232;-37
2022/06/10 05:55:20;;;;;;;21.67;19.33;;;;;;;;;;5138963;27;20202;-37
2022/06/10 05:57:50;;;;;;;21.45;19.17;;;;;;;;;;5139347;27;20308;-37
2022/06/10 06:00:23;;;;;;;22.23;20.02;;;;;;;;;;5139713;27;20185;-38
2022/06/10 06:02:50;;;;;;;23.33;19.50;;;;;;;;;;5139256;27;20461;-37
2022/06/10 06:05:18;;;;;;;26.85;20.05;;;;;;;;;;5138449;27;20674;-38
2022/06/10 06:07:46;;;;;;;25.85;20.00;;;;;;;;;;5139613;27;20196;-39
2022/06/10 06:10:17;;;;;;;22.25;19.60;;;;;;;;;;5121251;27;20201;-37
2022/06/10 06:12:45;;;;;;;22.65;20.15;;;;;;;;;;5138621;27;20273;-37
2022/06/10 06:15:13;;;;;;;22.30;18.95;;;;;;;;;;5138897;27;20261;-39
2022/06/10 06:17:41;;;;;;;24.15;18.20;;;;;;;;;;5138869;27;20217;-38
2022/06/10 06:20:11;;;;;;;24.73;19.15;;;;;;;;;;5138807;27;20205;-38
2022/06/10 06:22:38;;;;;;;20.80;18.65;;;;;;;;;;5139053;27;20202;-40
2022/06/10 06:25:05;;;;;;;23.48;19.35;;;;;;;;;;5138999;27;20197;-37
2022/06/10 06:27:32;;;;;;;25.08;18.65;;;;;;;;;;5138346;27;20629;-38
2022/06/10 06:30:01;;;;;;;22.35;18.92;;;;;;;;;;5138365;27;20529;-37
2022/06/10 06:32:28;;;;;;;20.73;18.52;;;;;;;;;;5138650;27;20197;-38
2022/06/10 06:34:55;;;;;;;21.30;18.75;;;;;;;;;;5138633;27;20737;-38
2022/06/10 06:37:22;;;;;;;24.35;18.08;;;;;;;;;;5138441;27;20225;-37
2022/06/10 06:39:49;;;;;;;20.70;18.45;;;;;;;;;;5138484;27;20202;-38
2022/06/10 06:42:16;;;;;;;21.23;18.15;;;;;;;;;;5138428;27;20226;-38
2022/06/10 06:44:56;;;;;;;20.98;17.25;;;;;;;;;;5120891;27;20189;-38
2022/06/10 06:47:43;;;;;;;19.73;16.63;;;;;;;;;;5138664;27;20517;-37
2022/06/10 06:50:14;;;;;;;19.02;17.00;;;;;;;;;;5137925;27;20204;-38
2022/06/10 06:52:41;;;;;;;20.38;16.00;;;;;;;;;;5138612;27;20185;-39
2022/06/10 06:55:09;;;;;;;21.20;18.30;;;;;;;;;;5138151;27;20211;-38
2022/06/10 06:57:36;;;;;;;22.83;17.85;;;;;;;;;;5138280;27;20222;-38
2022/06/10 07:00:06;;;;;;;22.27;17.73;;;;;;;;;;5137922;27;20615;-37
2022/06/10 07:02:35;;;;;;;19.13;17.13;;;;;;;;;;5137713;27;20209;-37
2022/06/10 07:05:04;;;;;;;18.27;16.38;;;;;;;;;;5137828;27;20201;-37
2022/06/10 07:07:31;;;;;;;18.48;16.50;;;;;;;;;;5137949;27;20190;-37
2022/06/10 07:09:58;;;;;;;20.35;17.55;;;;;;;;;;5137500;27;20622;-38
2022/06/10 07:12:25;;;;;;;22.73;17.40;;;;;;;;;;5138355;27;20197;-38
2022/06/10 07:14:52;;;;;;;18.92;16.83;;;;;;;;;;5138454;27;20205;-38
2022/06/10 07:17:19;;;;;;;18.05;16.13;;;;;;;;;;5136217;27;20241;-38
2022/06/10 07:19:51;;;;;;;18.05;15.18;;;;;;;;;;5137347;27;20217;-38
2022/06/10 07:22:18;;;;;;;17.63;14.18;;;;;;;;;;5137803;27;20246;-37
2022/06/10 07:24:46;;;;;;;20.25;14.68;;;;;;;;;;5137442;27;20208;-37
2022/06/10 07:27:13;;;;;;;20.92;14.02;;;;;;;;;;5137750;27;20209;-37
2022/06/10 07:29:40;;;;;;;15.20;13.10;;;;;;;;;;5137659;27;20197;-38
2022/06/10 07:32:07;;;;;;;15.60;12.48;;;;;;;;;;5137517;27;20205;-37
2022/06/10 07:34:35;;;;;;;21.10;14.23;;;;;;;;;;5137287;27;20510;-38
2022/06/10 07:37:02;;;;;;;13.60;12.30;;;;;;;;;;5133172;27;20217;-38
2022/06/10 07:39:31;;;;;;;12.82;11.43;;;;;;;;;;5135652;27;20206;-38
2022/06/10 07:42:00;;;;;;;16.58;12.52;;;;;;;;;;5125019;27;20510;-37
2022/06/10 07:44:33;;;;;;;13.80;12.15;;;;;;;;;;5116714;28;20198;-38
2022/06/10 07:47:04;;;;;;;14.07;12.65;;;;;;;;;;5116357;28;20528;-37
2022/06/10 07:49:32;;;;;;;15.68;12.88;;;;;;;;;;5116243;28;20201;-37
2022/06/10 07:51:59;;;;;;;14.60;13.10;;;;;;;;;;5116200;28;20558;-38
2022/06/10 07:54:26;;;;;;;19.27;13.80;;;;;;;;;;5116425;28;20221;-39
2022/06/10 07:56:53;;;;;;;14.30;12.77;;;;;;;;;;5116282;28;20222;-37
2022/06/10 07:59:20;;;;;;;15.05;12.82;;;;;;;;;;5116048;28;20612;-37
2022/06/10 08:01:48;;;;;;;15.85;10.02;;;;;;;;;;5116291;28;20201;-37
2022/06/10 08:04:15;;;;;;;15.32;10.35;;;;;;;;;;5116397;28;20535;-37
2022/06/10 08:06:45;;;;;;;12.70;9.95;;;;;;;;;;5115797;28;20237;-38
2022/06/10 08:09:15;;;;;;;16.92;8.65;;;;;;;;;;5116708;28;20202;-37
2022/06/10 08:11:42;;;;;;;11.95;9.45;;;;;;;;;;5116071;28;20202;-38
2022/06/10 08:14:10;;;;;;;12.88;8.63;;;;;;;;;;5116049;28;20198;-37
2022/06/10 08:16:37;;;;;;;15.48;8.88;;;;;;;;;;5116012;28;20507;-38
2022/06/10 08:19:05;;;;;;;10.48;8.15;;;;;;;;;;5115935;28;20190;-37
2022/06/10 08:24:20;;;;;;;13.73;9.27;;;;;;;;;;5116019;28;20190;-38
2022/06/10 08:26:48;;;;;;;11.18;9.43;;;;;;;;;;5116184;28;20198;-38
2022/06/10 08:29:18;;;;;;;10.10;9.05;;;;;;;;;;5115875;28;20289;-37
2022/06/10 08:31:45;;;;;;;16.98;9.90;;;;;;;;;;5115489;28;20699;-38
2022/06/10 08:34:13;;;;;;;14.20;9.48;;;;;;;;;;5115784;28;20549;-38
2022/06/10 08:36:41;;;;;;;11.60;9.52;;;;;;;;;;5115880;28;20205;-38
2022/06/10 08:39:10;;;;;;;11.30;9.55;;;;;;;;;;5115709;28;20206;-37
2022/06/10 08:41:43;;;;;;;11.40;9.20;;;;;;;;;;5115631;28;20202;-38
2022/06/10 08:44:24;;;;;;;13.48;10.73;;;;;;;;;;5115784;28;20186;-37
2022/06/10 08:47:22;;;;;;;12.05;10.82;;;;;;;;;;5115942;28;20186;-37
2022/06/10 08:50:24;;;;;;;13.90;10.27;;;;;;;;;;5115277;28;20581;-37
2022/06/10 08:53:09;;;;;;;10.77;9.63;;;;;;;;;;5115425;28;20190;-37
2022/06/10 08:56:03;;;;;;;14.45;11.95;;;;;;;;;;5097926;28;20278;-40
2022/06/10 08:58:40;;;;;;;19.77;12.73;;;;;;;;;;5115100;28;20213;-38
2022/06/10 09:01:14;;;;;;;25.00;12.68;;;;;;;;;;5115415;28;20626;-38
2022/06/10 09:03:47;;;;;;;13.82;12.43;;;;;;;;;;5098220;28;20193;-37
2022/06/10 09:06:26;;;;;;;15.10;12.02;;;;;;;;;;5097673;28;20244;-38
2022/06/10 09:08:56;;;;;;;15.70;11.63;;;;;;;;;;5098395;28;20250;-38
2022/06/10 09:11:35;;;;;;;15.73;12.20;;;;;;;;;;5100057;28;20190;-38
2022/06/10 09:14:13;;;;;;;14.10;11.20;;;;;;;;;;5118197;28;20189;-37
2022/06/10 09:17:12;;;;;;;15.70;12.55;;;;;;;;;;5135860;28;20188;-38
2022/06/10 09:20:09;;;;;;;14.05;10.98;;;;;;;;;;5132422;28;20265;-38
2022/06/10 09:22:44;;;;;;;18.42;12.20;;;;;;;;;;5117820;28;20633;-38
2022/06/10 09:25:23;;;;;;;16.98;12.65;;;;;;;;;;5118196;28;20204;-38
2022/06/10 09:27:57;;;;;;;14.63;12.00;;;;;;;;;;5136362;28;20185;-38
2022/06/10 09:30:36;;;;;;;16.25;11.75;;;;;;;;;;5135897;28;20205;-38
2022/06/10 09:33:11;;;;;;;18.02;11.45;;;;;;;;;;5118315;28;20189;-38
2022/06/10 09:35:53;;;;;;;15.77;10.55;;;;;;;;;;5135429;28;20181;-38
2022/06/10 09:38:37;;;;;;;13.90;11.07;;;;;;;;;;5135968;28;20271;-38
2022/06/10 09:41:31;;;;;;;14.68;11.50;;;;;;;;;;5135911;28;20253;-38
2022/06/10 09:44:19;;;;;;;14.88;11.15;;;;;;;;;;5135365;28;20197;-37
2022/06/10 09:47:07;;;;;;;15.05;10.18;;;;;;;;;;5152588;27;20193;-37
2022/06/10 09:50:00;;;;;;;15.40;11.88;;;;;;;;;;5139673;27;20194;-37
2022/06/10 09:52:31;;;;;;;14.10;12.48;;;;;;;;;;5122043;27;20221;-37
2022/06/10 09:55:24;;;;;;;18.90;12.27;;;;;;;;;;5121405;27;20196;-38
2022/06/10 09:58:04;;;;;;;14.00;11.30;;;;;;;;;;5138940;27;20205;-37
2022/06/10 10:00:40;;;;;;;16.67;12.13;;;;;;;;;;5139025;27;20198;-38
2022/06/10 10:03:20;;;;;;;14.98;12.80;;;;;;;;;;5139137;27;20190;-38
2022/06/10 10:06:15;;;;;;;21.85;12.93;;;;;;;;;;5121397;27;20225;-38
2022/06/10 10:08:52;;;;;;;16.48;11.85;;;;;;;;;;5121295;27;20280;-37
2022/06/10 10:11:38;;;;;;;13.15;10.93;;;;;;;;;;5121396;27;20482;-38
2022/06/10 10:14:15;;;;;;;17.55;12.07;;;;;;;;;;5121081;27;20185;-37
2022/06/10 10:16:57;;;;;;;15.32;11.20;;;;;;;;;;5121358;27;20567;-37
2022/06/10 10:19:45;;;;;;;24.67;12.90;;;;;;;;;;5139202;27;20186;-38
2022/06/10 10:22:16;;;;;;;12.27;11.02;;;;;;;;;;5139175;27;20254;-38
2022/06/10 10:24:44;;;;;;;16.27;11.05;;;;;;;;;;5139132;27;20247;-37
2022/06/10 10:27:22;;;;;;;12.98;11.25;;;;;;;;;;5120783;27;20262;-37
2022/06/10 10:29:55;;;;;;;12.93;10.68;;;;;;;;;;5138476;27;20197;-38
2022/06/10 10:32:26;;;;;;;12.50;10.50;;;;;;;;;;5120657;27;20624;-38
2022/06/10 10:35:00;;;;;;;16.10;10.75;;;;;;;;;;5121268;27;20201;-38
2022/06/10 10:37:30;;;;;;;11.32;10.05;;;;;;;;;;5121410;27;20193;-37
2022/06/10 10:40:15;;;;;;;12.18;10.55;;;;;;;;;;5138569;27;20196;-38
2022/06/10 10:42:44;;;;;;;16.25;12.23;;;;;;;;;;5139098;27;20213;-38
2022/06/10 10:45:38;;;;;;;11.50;10.38;;;;;;;;;;5120671;27;20205;-38
2022/06/10 10:48:16;;;;;;;12.15;10.73;;;;;;;;;;5117323;27;20637;-38
2022/06/10 10:51:03;;;;;;;13.88;11.73;;;;;;;;;;5121092;27;20189;-38
2022/06/10 10:53:36;;;;;;;13.27;11.75;;;;;;;;;;5120296;27;20185;-38
2022/06/10 10:56:05;;;;;;;12.57;11.25;;;;;;;;;;5138316;27;20196;-38
2022/06/10 10:58:53;;;;;;;14.80;10.45;;;;;;;;;;5118702;27;20721;-38
2022/06/10 11:01:47;;;;;;;13.80;10.90;;;;;;;;;;5120784;27;20201;-37
2022/06/10 11:04:30;;;;;;;17.52;11.35;;;;;;;;;;5138018;27;20231;-37
2022/06/10 11:07:11;;;;;;;15.13;11.55;;;;;;;;;;5137481;27;20562;-38
2022/06/10 11:10:04;;;;;;;13.35;11.70;;;;;;;;;;5137648;27;20190;-38
2022/06/10 11:12:32;;;;;;;13.38;11.98;;;;;;;;;;5138300;27;20483;-38
2022/06/10 11:15:04;;;;;;;17.48;11.07;;;;;;;;;;5120103;27;20201;-38
2022/06/10 11:17:34;;;;;;;12.23;10.70;;;;;;;;;;5138098;27;20185;-37
2022/06/10 11:20:22;;;;;;;14.73;9.68;;;;;;;;;;5120832;27;20185;-38
2022/06/10 11:22:49;;;;;;;13.88;9.85;;;;;;;;;;5137395;27;20611;-37
2022/06/10 11:25:25;;;;;;;17.83;12.85;;;;;;;;;;5137270;27;20638;-38
2022/06/10 11:28:01;;;;;;;17.42;14.48;;;;;;;;;;5137642;27;20185;-37
2022/06/10 11:30:42;;;;;;;19.50;14.98;;;;;;;;;;5137678;27;20185;-38
2022/06/10 11:33:19;;;;;;;20.77;14.63;;;;;;;;;;5137182;27;20185;-38
2022/06/10 11:36:07;;;;;;;15.82;14.32;;;;;;;;;;5119734;27;20564;-38
2022/06/10 11:39:07;;;;;;;16.27;14.57;;;;;;;;;;5137379;27;20213;-38
2022/06/10 11:41:35;;;;;;;18.77;14.00;;;;;;;;;;5136936;27;20216;-38
2022/06/10 11:44:13;;;;;;;15.40;13.85;;;;;;;;;;5136929;27;20197;-37
2022/06/10 11:46:49;;;;;;;16.40;14.55;;;;;;;;;;5119458;27;20181;-38
2022/06/10 11:49:40;;;;;;;17.98;14.05;;;;;;;;;;5120174;27;20193;-39
2022/06/10 11:52:26;;;;;;;19.38;15.45;;;;;;;;;;5119767;27;20178;-38
2022/06/10 11:55:03;;;;;;;16.83;14.70;;;;;;;;;;5137040;27;20193;-39
2022/06/10 12:00:35;;;;;;;16.95;12.98;;;;;;;;;;5137129;27;20192;-39
2022/06/10 12:03:28;;;;;;;15.65;13.98;;;;;;;;;;5137055;27;20227;-38
2022/06/10 12:06:19;;;;;;;15.95;13.45;;;;;;;;;;5119005;27;20286;-38
2022/06/10 12:08:53;;;;;;;13.57;12.18;;;;;;;;;;5119455;27;20189;-38
2022/06/10 12:11:39;;;;;;;14.52;13.02;;;;;;;;;;5136476;27;20200;-38
2022/06/10 12:14:13;;;;;;;14.82;13.00;;;;;;;;;;5136743;27;20209;-37
2022/06/10 12:16:46;;;;;;;15.63;12.50;;;;;;;;;;5119202;27;20262;-38
2022/06/10 12:19:20;;;;;;;15.38;12.90;;;;;;;;;;5119117;27;20209;-38
2022/06/10 12:21:47;;;;;;;14.18;12.77;;;;;;;;;;5118828;27;20223;-38
2022/06/10 12:24:16;;;;;;;18.60;14.30;;;;;;;;;;5136446;27;20197;-38
2022/06/10 12:26:47;;;;;;;14.48;13.02;;;;;;;;;;5118971;27;20201;-38
2022/06/10 12:29:23;;;;;;;18.27;13.25;;;;;;;;;;5136209;27;20628;-38
2022/06/10 12:31:56;;;;;;;12.80;11.05;;;;;;;;;;5118689;27;20204;-38
2022/06/10 12:34:57;;;;;;;12.27;10.88;;;;;;;;;;5121850;27;20560;-38
2022/06/10 12:37:29;;;;;;;14.15;11.77;;;;;;;;;;5096566;27;20250;-39
2022/06/10 12:40:34;;;;;;;16.75;12.05;;;;;;;;;;5117362;27;20745;-38
2022/06/10 12:43:06;;;;;;;15.30;11.23;;;;;;;;;;5042755;28;20244;-38
2022/06/10 12:45:44;;;;;;;14.82;10.52;;;;;;;;;;5012782;28;20232;-38
2022/06/10 12:48:15;;;;;;;12.70;10.48;;;;;;;;;;5029327;28;20269;-39
2022/06/10 12:50:58;;;;;;;13.35;9.95;;;;;;;;;;5002799;28;20686;-38
2022/06/10 12:53:47;;;;;;;16.25;10.20;;;;;;;;;;5022749;28;20589;-38
2022/06/10 12:56:24;;;;;;;10.82;9.43;;;;;;;;;;5032382;28;20232;-38
2022/06/10 12:59:11;;;;;;;13.63;10.30;;;;;;;;;;5032228;28;20240;-38
2022/06/10 13:01:38;;;;;;;14.57;9.45;;;;;;;;;;5032334;28;20228;-39
2022/06/10 13:04:25;;;;;;;11.15;9.13;;;;;;;;;;5032000;28;20233;-44
2022/06/10 13:07:03;;;;;;;13.45;10.18;;;;;;;;;;5012302;28;20247;-43
2022/06/10 13:09:31;;;;;;;11.10;8.90;;;;;;;;;;5012067;28;20243;-41
2022/06/10 13:12:07;;;;;;;12.18;9.40;;;;;;;;;;5012608;28;20249;-41
2022/06/10 13:14:39;;;;;;;13.23;8.88;;;;;;;;;;5012305;28;20268;-41
2022/06/10 13:17:22;;;;;;;13.10;9.80;;;;;;;;;;5012802;28;20237;-43
2022/06/10 13:19:56;;;;;;;13.55;9.55;;;;;;;;;;5069137;28;20233;-41
2022/06/10 13:22:29;;;;;;;13.77;9.55;;;;;;;;;;5118181;27;20221;-41
2022/06/10 13:24:57;;;;;;;11.60;9.38;;;;;;;;;;5138905;27;20671;-41
2022/06/10 13:27:26;;;;;;;11.82;10.45;;;;;;;;;;5139094;27;20258;-42
2022/06/10 13:30:15;;;;;;;13.27;10.05;;;;;;;;;;5138812;27;20598;-41
2022/06/10 13:32:54;;;;;;;12.02;9.27;;;;;;;;;;5127725;27;20232;-42
2022/06/10 13:35:28;;;;;;;12.88;9.18;;;;;;;;;;5138835;27;20287;-42
2022/06/10 13:37:59;;;;;;;12.32;9.43;;;;;;;;;;5138587;27;20244;-42
2022/06/10 13:40:28;;;;;;;9.80;8.27;;;;;;;;;;5120943;27;20222;-41
2022/06/10 13:43:02;;;;;;;13.55;8.98;;;;;;;;;;5138959;27;20302;-43
2022/06/10 13:45:37;;;;;;;9.43;8.43;;;;;;;;;;5120709;27;20236;-41
2022/06/10 13:48:14;;;;;;;9.25;8.35;;;;;;;;;;5139138;27;20221;-43
2022/06/10 13:53:47;;;;;;;10.35;7.88;;;;;;;;;;5138218;27;20218;-40
2022/06/10 13:56:15;;;;;;;13.82;8.90;;;;;;;;;;5117663;28;20724;-41
2022/06/10 13:58:51;;;;;;;9.40;8.10;;;;;;;;;;5100240;28;20238;-41
2022/06/10 14:01:21;;;;;;;13.05;7.95;;;;;;;;;;5117662;28;20218;-41
2022/06/10 14:03:50;;;;;;;8.50;7.25;;;;;;;;;;5116910;28;20225;-41
2022/06/10 14:06:23;;;;;;;10.80;7.45;;;;;;;;;;5116213;27;20260;-41
2022/06/10 14:08:57;;;;;;;11.20;7.55;;;;;;;;;;5117885;27;20225;-41
2022/06/10 14:11:33;;;;;;;10.23;6.82;;;;;;;;;;5115861;27;20232;-45
2022/06/10 14:14:07;;;;;;;11.05;7.20;;;;;;;;;;5119079;27;20270;-42
2022/06/10 14:16:35;;;;;;;8.98;7.45;;;;;;;;;;5136584;27;20244;-41
2022/06/10 14:19:06;;;;;;;10.55;7.07;;;;;;;;;;5118957;27;20221;-42
2022/06/10 14:21:35;;;;;;;12.98;6.30;;;;;;;;;;5136081;27;20217;-44
2022/06/10 14:24:17;;;;;;;8.55;6.50;;;;;;;;;;5118791;27;20221;-42
2022/06/10 14:27:04;;;;;;;8.52;6.63;;;;;;;;;;5130958;27;20536;-43
2022/06/10 14:29:40;;;;;;;8.50;5.80;;;;;;;;;;5134960;27;20210;-41
2022/06/10 14:32:18;;;;;;;6.50;5.82;;;;;;;;;;5134434;27;20221;-45
2022/06/10 14:34:45;;;;;;;7.50;5.65;;;;;;;;;;5133751;27;20216;-43
2022/06/10 14:37:25;;;;;;;7.85;5.85;;;;;;;;;;5117776;27;20224;-42
2022/06/10 14:40:09;;;;;;;7.20;5.68;;;;;;;;;;5134849;27;20251;-41
2022/06/10 14:42:37;;;;;;;8.88;5.57;;;;;;;;;;5135409;27;20209;-43
2022/06/10 14:45:25;;;;;;;7.15;5.60;;;;;;;;;;5134052;27;20604;-43
2022/06/10 14:48:06;;;;;;;6.25;4.60;;;;;;;;;;5137360;27;20649;-43
2022/06/10 14:50:42;;;;;;;11.30;5.00;;;;;;;;;;5137209;27;20237;-41
2022/06/10 14:53:17;;;;;;;5.20;4.70;;;;;;;;;;5119627;27;20224;-43
2022/06/10 14:55:47;;;;;;;7.97;4.65;;;;;;;;;;5119395;27;20582;-40
2022/06/10 14:58:18;;;;;;;8.57;4.75;;;;;;;;;;5136837;27;20669;-42
2022/06/10 15:00:47;;;;;;;12.00;5.28;;;;;;;;;;5136969;27;20225;-42
2022/06/10 15:03:15;;;;;;;8.48;5.10;;;;;;;;;;5136701;27;20225;-41
2022/06/10 15:08:29;;;;;;;6.30;4.75;;;;;;;;;;5136420;27;20259;-44
2022/06/10 15:11:03;;;;;;;6.30;4.88;;;;;;;;;;5132691;27;20521;-41
2022/06/10 15:13:35;;;;;;;6.60;4.60;;;;;;;;;;5135355;27;20235;-44
2022/06/10 15:16:03;;;;;;;9.45;4.43;;;;;;;;;;5132417;27;20233;-41
2022/06/10 15:18:31;;;;;;;10.27;4.53;;;;;;;;;;5135581;27;20205;-43
2022/06/10 15:21:01;;;;;;;5.93;4.47;;;;;;;;;;5134934;27;20213;-43